Main page
METAR-TAF:

METAR-TAF

Airports :

Venice Municipal Airport

Venice, Florida, United States

latitude: 27-04-18N, longitude: 082-26-25W, elevation: 16 ft

Current weather observation

The report was made 14 minutes ago, at 12:15 UTC
Wind 6 mph from the East/Southeast
Temperature 79°F
Humidity 100%
Pressure 30.05 in. Hg
Visibility: 6 miles
Few clouds at a height of 1500 ft
mist

METAR: KVNC 281215Z AUTO 12005KT 6SM BR FEW015 26/26 A3005 RMK AO2

Time: 08:29 (12:29 UTC)


TAF: missing

Weather observations and forecasts of more than 4000 airports (METAR and TAF reports).

The available stations are represented by yellow and red dots on the map.

Hover mouse over dot to see the name of the station.

Then click to see weather observations and forecasts.

To change the map : click on the green buttons with a black cross to zoom in, on the green button with a dash to zoom out, or on the green arrows for adjacent maps.


METAR-TAF: